createdAt,value
2019-03-08T00:00:06.437Z,1.67
2019-03-08T00:02:39.521Z,1.63
2019-03-08T00:05:12.192Z,2.10
2019-03-08T00:07:45.770Z,2.10
2019-03-08T00:10:18.702Z,1.83
2019-03-08T00:12:52.178Z,1.87
2019-03-08T00:15:26.317Z,2.43
2019-03-08T00:17:59.301Z,1.70
2019-03-08T00:20:32.294Z,1.80
2019-03-08T00:23:04.945Z,1.80
2019-03-08T00:25:37.836Z,2.00
2019-03-08T00:28:11.026Z,1.63
2019-03-08T00:30:44.854Z,2.13
2019-03-08T00:33:19.393Z,2.00
2019-03-08T00:35:52.440Z,1.50
2019-03-08T00:38:26.318Z,2.33
2019-03-08T00:40:59.455Z,1.67
2019-03-08T00:43:32.423Z,1.37
2019-03-08T00:46:05.434Z,1.80
2019-03-08T00:48:38.209Z,1.57
2019-03-08T00:51:11.179Z,1.77
2019-03-08T00:53:44.998Z,1.47
2019-03-08T00:56:19.578Z,2.20
2019-03-08T00:58:52.410Z,1.20
2019-03-08T01:01:26.496Z,1.10
2019-03-08T01:03:59.421Z,2.60
2019-03-08T01:06:33.107Z,1.27
2019-03-08T01:09:07.725Z,1.90
2019-03-08T01:11:41.133Z,1.30
2019-03-08T01:14:15.270Z,1.77
2019-03-08T01:16:49.357Z,1.20
2019-03-08T01:19:23.469Z,1.30
2019-03-08T01:21:56.686Z,1.23
2019-03-08T01:24:29.652Z,1.30
2019-03-08T01:27:03.525Z,1.57
2019-03-08T01:29:36.459Z,1.30
2019-03-08T01:32:09.870Z,1.67
2019-03-08T01:34:42.936Z,1.27
2019-03-08T01:37:16.120Z,1.17
2019-03-08T01:39:49.008Z,1.57
2019-03-08T01:42:22.007Z,1.30
2019-03-08T01:44:54.988Z,1.20
2019-03-08T01:47:29.608Z,1.20
2019-03-08T01:50:03.560Z,1.60
2019-03-08T01:52:38.252Z,1.27
2019-03-08T01:55:11.421Z,1.20
2019-03-08T01:57:45.490Z,1.40
2019-03-08T02:00:25.036Z,1.70
2019-03-08T02:02:58.569Z,1.30
2019-03-08T02:05:31.574Z,1.40
2019-03-08T02:08:06.190Z,2.03
2019-03-08T02:10:40.712Z,1.10
2019-03-08T02:13:16.487Z,1.20
2019-03-08T02:15:49.660Z,1.30
2019-03-08T02:18:25.381Z,1.20
2019-03-08T02:21:06.442Z,1.53
2019-03-08T02:23:34.569Z,1.53
2019-03-08T02:26:07.729Z,1.70
2019-03-08T02:28:41.965Z,1.70
2019-03-08T02:31:16.031Z,1.70
2019-03-08T02:33:48.842Z,1.53
2019-03-08T02:36:25.252Z,1.40
2019-03-08T02:38:59.131Z,1.50
2019-03-08T02:41:33.305Z,1.93
2019-03-08T02:44:06.235Z,1.30
2019-03-08T02:46:40.423Z,1.50
2019-03-08T02:49:13.436Z,1.40
2019-03-08T02:51:48.722Z,1.60
2019-03-08T02:54:23.927Z,1.53
2019-03-08T02:56:58.470Z,1.47
2019-03-08T02:59:31.219Z,1.90
2019-03-08T03:02:05.648Z,1.83
2019-03-08T03:04:39.749Z,2.03
2019-03-08T03:07:12.691Z,2.03
2019-03-08T03:09:46.786Z,2.40
2019-03-08T03:12:21.289Z,1.50
2019-03-08T03:14:54.152Z,1.60
2019-03-08T03:17:30.529Z,1.80
2019-03-08T03:20:03.448Z,1.30
2019-03-08T03:22:37.626Z,1.80
2019-03-08T03:25:14.606Z,2.07
2019-03-08T03:27:48.615Z,1.87
2019-03-08T03:30:23.873Z,1.63
2019-03-08T03:32:56.735Z,1.40
2019-03-08T03:35:32.537Z,1.37
2019-03-08T03:38:06.673Z,1.97
2019-03-08T03:40:42.184Z,1.10
2019-03-08T03:43:16.585Z,1.67
2019-03-08T03:45:50.706Z,1.33
2019-03-08T03:48:24.849Z,1.50
2019-03-08T03:50:58.075Z,1.30
2019-03-08T03:53:30.878Z,1.57
2019-03-08T03:56:06.381Z,1.00
2019-03-08T03:58:39.305Z,1.13
2019-03-08T04:01:23.696Z,1.53
2019-03-08T04:03:59.835Z,2.20
2019-03-08T04:06:33.688Z,1.67
2019-03-08T04:09:08.123Z,1.40
2019-03-08T04:11:41.222Z,1.63
2019-03-08T04:14:16.320Z,1.70
2019-03-08T04:16:50.996Z,1.60
2019-03-08T04:19:26.470Z,1.50
2019-03-08T04:21:59.663Z,1.53
2019-03-08T04:24:32.687Z,1.23
2019-03-08T04:27:06.088Z,1.80
2019-03-08T04:29:39.994Z,1.40
2019-03-08T04:32:14.584Z,1.47
2019-03-08T04:34:49.829Z,1.10
2019-03-08T04:37:24.124Z,2.13
2019-03-08T04:39:57.324Z,1.23
2019-03-08T04:42:31.973Z,2.17
2019-03-08T04:45:05.035Z,1.20
2019-03-08T04:47:39.105Z,2.83
2019-03-08T04:50:16.994Z,1.47
2019-03-08T04:52:51.065Z,1.50
2019-03-08T04:55:25.915Z,1.10
2019-03-08T04:57:58.755Z,1.20
2019-03-08T05:00:31.605Z,1.10
2019-03-08T05:03:04.531Z,1.20
2019-03-08T05:05:37.847Z,1.00
2019-03-08T05:08:10.875Z,0.93
2019-03-08T05:10:44.006Z,1.40
2019-03-08T05:13:16.846Z,0.90
2019-03-08T05:15:50.600Z,1.10
2019-03-08T05:18:23.334Z,1.13
2019-03-08T05:20:57.968Z,1.00
2019-03-08T05:23:30.849Z,1.30
2019-03-08T05:26:04.138Z,1.10
2019-03-08T05:28:37.029Z,1.10
2019-03-08T05:31:10.052Z,1.20
2019-03-08T05:33:42.877Z,1.37
2019-03-08T05:36:15.661Z,1.10
2019-03-08T05:38:48.847Z,1.20
2019-03-08T05:41:21.958Z,0.80
2019-03-08T05:43:55.259Z,1.03
2019-03-08T05:46:28.143Z,1.00
2019-03-08T05:49:01.310Z,1.00
2019-03-08T05:51:34.456Z,1.13
2019-03-08T05:54:07.862Z,0.93
2019-03-08T05:56:40.684Z,1.50
2019-03-08T05:59:14.162Z,1.50
2019-03-08T06:01:47.084Z,1.17
2019-03-08T06:04:19.973Z,0.90
2019-03-08T06:06:52.989Z,1.20
2019-03-08T06:09:26.391Z,0.97
2019-03-08T06:11:59.377Z,1.03
2019-03-08T06:14:32.626Z,1.10
2019-03-08T06:17:05.907Z,0.83
2019-03-08T06:19:38.804Z,1.30
2019-03-08T06:22:12.091Z,1.57
2019-03-08T06:24:45.021Z,1.27
2019-03-08T06:27:18.533Z,1.23
2019-03-08T06:29:51.513Z,1.60
2019-03-08T06:32:24.550Z,1.17
2019-03-08T06:34:57.319Z,1.10
2019-03-08T06:37:30.649Z,1.40
2019-03-08T06:40:03.524Z,1.73
2019-03-08T06:42:36.979Z,1.03
2019-03-08T06:45:12.222Z,1.57
2019-03-08T06:47:45.408Z,1.53
2019-03-08T06:50:18.475Z,1.40
2019-03-08T06:52:52.336Z,1.43
2019-03-08T06:55:25.481Z,3.17
2019-03-08T06:58:08.218Z,1.73
2019-03-08T07:00:42.682Z,2.60
2019-03-08T07:03:15.783Z,1.57
2019-03-08T07:05:48.548Z,1.67
2019-03-08T07:08:21.510Z,1.60
2019-03-08T07:10:54.498Z,2.47
2019-03-08T07:13:28.220Z,1.67
2019-03-08T07:16:01.094Z,2.57
2019-03-08T07:18:34.843Z,1.60
2019-03-08T07:21:11.624Z,1.77
2019-03-08T07:23:49.628Z,1.80
2019-03-08T07:26:23.891Z,1.87
2019-03-08T07:29:16.016Z,1.50
2019-03-08T07:31:56.241Z,1.80
2019-03-08T07:34:30.993Z,1.57
2019-03-08T07:37:11.698Z,1.90
2019-03-08T07:39:46.439Z,1.63
2019-03-08T07:42:32.431Z,1.90
2019-03-08T07:45:07.218Z,1.90
2019-03-08T07:47:44.514Z,1.77
2019-03-08T07:50:22.438Z,1.47
2019-03-08T07:53:02.607Z,1.70
2019-03-08T07:55:54.289Z,1.87
2019-03-08T07:58:45.040Z,2.00
2019-03-08T08:01:26.620Z,1.93
2019-03-08T08:04:06.784Z,2.13
2019-03-08T08:06:44.190Z,1.77
2019-03-08T08:09:18.281Z,3.93
2019-03-08T08:12:03.132Z,1.87
2019-03-08T08:14:43.007Z,2.27
2019-03-08T08:17:21.083Z,3.70
2019-03-08T08:20:16.362Z,2.20
2019-03-08T08:22:53.295Z,2.40
2019-03-08T08:25:36.277Z,2.90
2019-03-08T08:28:12.493Z,2.43
2019-03-08T08:30:46.689Z,2.40
2019-03-08T08:33:34.676Z,2.57
2019-03-08T08:36:14.982Z,2.03
2019-03-08T08:38:52.279Z,2.17
2019-03-08T08:41:29.236Z,2.60
2019-03-08T08:44:13.116Z,2.67
2019-03-08T08:47:05.639Z,2.60
2019-03-08T08:49:54.548Z,3.20
2019-03-08T08:52:26.049Z,2.97
2019-03-08T08:55:03.370Z,1.90
2019-03-08T08:57:38.636Z,2.33
2019-03-08T09:00:25.037Z,2.53
2019-03-08T09:03:02.660Z,3.50
2019-03-08T09:05:36.882Z,2.40
2019-03-08T09:08:17.457Z,2.60
2019-03-08T09:10:51.473Z,2.10
2019-03-08T09:13:38.160Z,2.60
2019-03-08T09:16:12.580Z,2.77
2019-03-08T09:19:03.019Z,2.90
2019-03-08T09:21:53.296Z,2.73
2019-03-08T09:24:34.099Z,2.67
2019-03-08T09:27:24.656Z,2.57
2019-03-08T09:29:58.575Z,2.40
2019-03-08T09:32:39.238Z,3.50
2019-03-08T09:35:31.753Z,2.10
2019-03-08T09:38:06.035Z,1.80
2019-03-08T09:40:43.005Z,2.90
2019-03-08T09:43:23.012Z,2.27
2019-03-08T09:46:13.392Z,2.87
2019-03-08T09:48:50.475Z,3.37
2019-03-08T09:51:24.644Z,3.10
2019-03-08T09:54:02.118Z,3.03
2019-03-08T09:56:42.560Z,3.20
2019-03-08T09:59:17.035Z,2.97
2019-03-08T10:02:06.964Z,2.97
2019-03-08T10:04:57.813Z,3.00
2019-03-08T10:07:50.405Z,3.20
2019-03-08T10:10:25.240Z,2.63
2019-03-08T10:13:02.328Z,2.60
2019-03-08T10:15:36.749Z,2.93
2019-03-08T10:18:13.833Z,2.50
2019-03-08T10:21:00.173Z,3.37
2019-03-08T10:23:37.617Z,2.40
2019-03-08T10:26:21.278Z,3.13
2019-03-08T10:29:10.342Z,3.33
2019-03-08T10:31:47.322Z,3.10
2019-03-08T10:34:37.946Z,3.00
2019-03-08T10:37:12.199Z,2.53
2019-03-08T10:39:46.274Z,3.73
2019-03-08T10:42:23.880Z,3.40
2019-03-08T10:45:04.851Z,3.73
2019-03-08T10:47:42.034Z,4.53
2019-03-08T10:50:31.401Z,3.00
2019-03-08T10:53:08.800Z,4.90
2019-03-08T10:55:58.099Z,4.07
2019-03-08T10:58:39.037Z,3.30
2019-03-08T11:01:13.123Z,4.10
2019-03-08T11:03:59.703Z,4.80
2019-03-08T11:06:34.007Z,3.70
2019-03-08T11:09:12.773Z,3.57
2019-03-08T11:11:47.103Z,3.90
2019-03-08T11:14:25.063Z,3.73
2019-03-08T11:16:59.084Z,3.90
2019-03-08T11:19:37.029Z,3.80
2019-03-08T11:22:20.247Z,4.60
2019-03-08T11:24:56.892Z,3.40
2019-03-08T11:27:34.828Z,3.30
2019-03-08T11:30:10.014Z,3.93
2019-03-08T11:32:52.980Z,4.30
2019-03-08T11:35:29.934Z,4.00
2019-03-08T11:38:04.141Z,3.50
2019-03-08T11:40:50.263Z,3.50
2019-03-08T11:43:27.640Z,3.40
2019-03-08T11:46:14.343Z,3.63
2019-03-08T11:49:04.877Z,3.20
2019-03-08T11:51:42.366Z,4.20
2019-03-08T11:54:40.605Z,3.50
2019-03-08T11:57:25.080Z,4.00
2019-03-08T12:00:11.878Z,3.47
2019-03-08T12:02:45.995Z,3.57
2019-03-08T12:05:20.308Z,3.50
2019-03-08T12:07:54.205Z,3.70
2019-03-08T12:10:34.258Z,3.70
2019-03-08T12:13:20.751Z,3.20
2019-03-08T12:15:54.764Z,3.90
2019-03-08T12:18:28.603Z,4.10
2019-03-08T12:21:17.829Z,3.50
2019-03-08T12:23:52.187Z,2.90
2019-03-08T12:26:42.461Z,3.00
2019-03-08T12:29:32.657Z,3.07
2019-03-08T12:32:11.171Z,3.30
2019-03-08T12:35:01.742Z,2.37
2019-03-08T12:37:36.326Z,2.70
2019-03-08T12:40:15.231Z,3.00
2019-03-08T12:42:56.380Z,2.60
2019-03-08T12:45:36.745Z,3.67
2019-03-08T12:48:23.640Z,2.93
2019-03-08T12:50:52.473Z,4.70
2019-03-08T12:53:28.108Z,4.00
2019-03-08T12:56:02.403Z,3.17
2019-03-08T12:58:39.379Z,3.50
2019-03-08T13:01:13.421Z,2.87
2019-03-08T13:03:48.021Z,3.83
2019-03-08T13:06:37.283Z,3.03
2019-03-08T13:09:16.232Z,3.67
2019-03-08T13:11:49.049Z,2.90
2019-03-08T13:14:21.965Z,3.60
2019-03-08T13:16:55.177Z,3.40
2019-03-08T13:19:27.946Z,2.20
2019-03-08T13:22:01.103Z,2.80
2019-03-08T13:24:33.900Z,2.93
2019-03-08T13:27:06.785Z,3.33
2019-03-08T13:29:40.547Z,2.53
2019-03-08T13:32:13.677Z,3.27
2019-03-08T13:34:46.646Z,3.97
2019-03-08T13:37:19.649Z,3.10
2019-03-08T13:39:52.644Z,3.10
2019-03-08T13:42:25.418Z,3.10
2019-03-08T13:44:58.454Z,3.90
2019-03-08T13:47:31.390Z,2.83
2019-03-08T13:50:05.350Z,3.00
2019-03-08T13:52:38.188Z,3.53
2019-03-08T13:55:16.347Z,3.20
2019-03-08T13:57:49.260Z,4.13
2019-03-08T14:00:25.193Z,2.40
2019-03-08T14:02:58.523Z,3.00
2019-03-08T14:05:31.461Z,2.87
2019-03-08T14:08:04.507Z,2.73
2019-03-08T14:10:37.574Z,3.13
2019-03-08T14:13:10.475Z,3.57
2019-03-08T14:15:43.670Z,2.80
2019-03-08T14:18:16.478Z,2.90
2019-03-08T14:20:49.627Z,3.50
2019-03-08T14:23:22.835Z,4.93
2019-03-08T14:25:56.322Z,3.60
2019-03-08T14:28:29.334Z,5.23
2019-03-08T14:31:08.903Z,3.87
2019-03-08T14:33:41.119Z,3.13
2019-03-08T14:36:14.328Z,3.20
2019-03-08T14:38:47.120Z,2.67
2019-03-08T14:41:21.869Z,3.60
2019-03-08T14:43:55.968Z,2.97
2019-03-08T14:46:33.507Z,3.50
2019-03-08T14:49:07.706Z,3.00
2019-03-08T14:51:40.706Z,2.50
2019-03-08T14:54:13.624Z,4.17
2019-03-08T14:56:47.899Z,3.70
2019-03-08T14:59:20.826Z,3.40
2019-03-08T15:01:53.896Z,2.60
2019-03-08T15:04:29.452Z,2.10
2019-03-08T15:07:01.311Z,2.30
2019-03-08T15:09:35.693Z,2.90
2019-03-08T15:12:16.383Z,3.33
2019-03-08T15:14:42.445Z,3.33
2019-03-08T15:17:16.842Z,2.60
2019-03-08T15:19:49.885Z,2.80
2019-03-08T15:22:22.813Z,2.03
2019-03-08T15:24:56.906Z,2.13
2019-03-08T15:27:29.804Z,3.57
2019-03-08T15:30:02.952Z,2.87
2019-03-08T15:32:35.873Z,3.00
2019-03-08T15:35:10.646Z,2.97
2019-03-08T15:37:44.532Z,3.73
2019-03-08T15:40:20.439Z,3.70
2019-03-08T15:42:53.584Z,2.53
2019-03-08T15:45:26.683Z,2.63
2019-03-08T15:47:59.550Z,3.07
2019-03-08T15:50:32.506Z,3.67
2019-03-08T15:53:05.752Z,3.23
2019-03-08T15:55:38.674Z,3.07
2019-03-08T15:58:11.578Z,2.80
2019-03-08T16:00:45.054Z,2.73
2019-03-08T16:03:17.967Z,2.53
2019-03-08T16:05:51.612Z,3.53
2019-03-08T16:08:24.571Z,2.63
2019-03-08T16:10:57.526Z,3.27
2019-03-08T16:13:30.337Z,2.33
2019-03-08T16:16:03.357Z,3.30
2019-03-08T16:18:36.109Z,2.60
2019-03-08T16:21:13.006Z,2.90
2019-03-08T16:23:43.098Z,4.53
2019-03-08T16:26:16.069Z,3.90
2019-03-08T16:28:48.852Z,3.23
2019-03-08T16:31:32.130Z,3.17
2019-03-08T16:34:05.835Z,3.67
2019-03-08T16:36:40.053Z,3.97
2019-03-08T16:39:16.626Z,3.00
2019-03-08T16:42:07.646Z,3.47
2019-03-08T16:44:59.654Z,3.20
2019-03-08T16:47:45.955Z,3.33
2019-03-08T16:50:22.296Z,2.30
2019-03-08T16:52:54.697Z,3.00
2019-03-08T16:55:29.208Z,3.23
2019-03-08T16:58:03.560Z,3.70
2019-03-08T17:00:43.994Z,3.57
2019-03-08T17:03:30.824Z,3.03
2019-03-08T17:06:07.582Z,3.63
2019-03-08T17:08:47.548Z,3.60
2019-03-08T17:11:27.704Z,3.03
2019-03-08T17:14:02.219Z,2.67
2019-03-08T17:16:54.746Z,2.17
2019-03-08T17:19:34.908Z,3.73
2019-03-08T17:22:09.866Z,4.73
2019-03-08T17:24:44.154Z,3.43
2019-03-08T17:27:30.454Z,2.87
2019-03-08T17:30:04.546Z,2.40
2019-03-08T17:32:53.543Z,3.00
2019-03-08T17:35:44.140Z,3.90
2019-03-08T17:38:21.003Z,3.37
2019-03-08T17:40:55.411Z,3.33
2019-03-08T17:43:41.610Z,3.00
2019-03-08T17:46:21.808Z,2.70
2019-03-08T17:48:56.019Z,3.87
2019-03-08T17:51:33.277Z,3.33
2019-03-08T17:54:22.253Z,2.90
2019-03-08T17:56:56.503Z,4.40
2019-03-08T17:59:46.759Z,3.37
2019-03-08T18:02:30.696Z,2.77
2019-03-08T18:05:05.416Z,3.00
2019-03-08T18:07:42.491Z,3.40
2019-03-08T18:10:16.527Z,2.80
2019-03-08T18:13:07.332Z,3.10
2019-03-08T18:15:47.222Z,3.33
2019-03-08T18:18:33.792Z,2.30
2019-03-08T18:21:23.771Z,2.07
2019-03-08T18:24:01.038Z,3.80
2019-03-08T18:26:50.718Z,2.40
2019-03-08T18:29:41.234Z,2.90
2019-03-08T18:32:24.455Z,2.73
2019-03-08T18:35:11.164Z,4.63
2019-03-08T18:37:57.344Z,2.93
2019-03-08T18:40:37.236Z,2.67
2019-03-08T18:43:17.485Z,2.40
2019-03-08T18:45:51.664Z,3.40
2019-03-08T18:48:41.769Z,3.17
2019-03-08T18:51:28.253Z,2.67
2019-03-08T18:54:08.730Z,2.73
2019-03-08T18:56:59.163Z,4.00
2019-03-08T18:59:33.459Z,4.20
2019-03-08T19:02:25.989Z,3.20
2019-03-08T19:05:00.522Z,3.17
2019-03-08T19:07:34.742Z,3.20
2019-03-08T19:10:25.827Z,2.97
2019-03-08T19:13:06.619Z,3.17
2019-03-08T19:15:40.718Z,3.13
2019-03-08T19:18:15.651Z,4.33
2019-03-08T19:21:06.061Z,2.57
2019-03-08T19:23:40.241Z,4.40
2019-03-08T19:26:14.123Z,2.70
2019-03-08T19:28:51.403Z,2.17
2019-03-08T19:31:25.591Z,3.87
2019-03-08T19:34:15.334Z,3.47
2019-03-08T19:36:52.243Z,2.67
2019-03-08T19:39:44.715Z,2.37
2019-03-08T19:42:24.843Z,3.70
2019-03-08T19:44:59.430Z,2.83
2019-03-08T19:47:36.326Z,2.93
2019-03-08T19:50:18.747Z,3.43
2019-03-08T19:52:52.815Z,2.77
2019-03-08T19:55:27.331Z,2.77
2019-03-08T19:58:07.379Z,3.37
2019-03-08T20:00:58.895Z,3.03
2019-03-08T20:03:32.816Z,3.97
2019-03-08T20:06:19.414Z,2.53
2019-03-08T20:09:02.751Z,2.20
2019-03-08T20:11:46.062Z,3.33
2019-03-08T20:14:19.979Z,2.50
2019-03-08T20:16:57.164Z,2.17
2019-03-08T20:19:46.226Z,3.63
2019-03-08T20:22:29.872Z,2.47
2019-03-08T20:25:13.066Z,2.33
2019-03-08T20:27:49.930Z,3.30
2019-03-08T20:30:40.338Z,4.70
2019-03-08T20:33:23.519Z,2.30
2019-03-08T20:36:10.927Z,1.53
2019-03-08T20:38:48.436Z,2.83
2019-03-08T20:41:38.835Z,2.43
2019-03-08T20:44:15.894Z,2.70
2019-03-08T20:46:59.105Z,2.00
2019-03-08T20:49:33.069Z,2.77
2019-03-08T20:52:05.858Z,2.83
2019-03-08T20:54:39.136Z,2.13
2019-03-08T20:57:12.143Z,2.53
2019-03-08T20:59:45.306Z,2.20
2019-03-08T21:02:18.084Z,1.90
2019-03-08T21:04:52.114Z,2.50
2019-03-08T21:07:25.117Z,2.20
2019-03-08T21:18:05.114Z,2.60
2019-03-08T21:20:38.122Z,2.00
2019-03-08T21:36:59.135Z,2.33
2019-03-08T21:39:47.759Z,2.80
2019-03-08T21:44:58.524Z,2.47
2019-03-08T21:47:31.181Z,2.20
2019-03-08T21:50:04.420Z,3.07
2019-03-08T21:52:37.190Z,2.13
2019-03-08T21:55:10.884Z,2.27
2019-03-08T21:57:43.770Z,2.60
2019-03-08T22:00:22.163Z,2.53
2019-03-08T22:02:55.062Z,2.83
2019-03-08T22:05:29.310Z,2.50
2019-03-08T22:08:02.475Z,2.30
2019-03-08T22:10:42.891Z,3.23
2019-03-08T22:13:15.820Z,1.90
2019-03-08T22:15:49.011Z,3.63
2019-03-08T22:18:22.203Z,2.10
2019-03-08T22:20:55.331Z,2.03
2019-03-08T22:23:29.435Z,1.83
2019-03-08T22:26:02.387Z,2.50
2019-03-08T22:28:35.227Z,1.93
2019-03-08T22:31:08.238Z,2.40
2019-03-08T22:33:41.687Z,3.07
2019-03-08T22:36:15.219Z,2.17
2019-03-08T22:38:49.741Z,2.07
2019-03-08T22:41:22.780Z,1.30
2019-03-08T22:43:57.022Z,3.17
2019-03-08T22:46:30.110Z,2.07
2019-03-08T22:49:04.548Z,2.60
2019-03-08T22:51:38.778Z,2.50
2019-03-08T22:54:11.586Z,3.43
2019-03-08T22:56:44.867Z,2.70
2019-03-08T22:59:18.128Z,2.07
2019-03-08T23:01:53.642Z,3.40
2019-03-08T23:04:26.754Z,2.90
2019-03-08T23:07:00.205Z,2.13
2019-03-08T23:09:33.141Z,2.23
2019-03-08T23:12:06.210Z,2.83
2019-03-08T23:14:38.970Z,2.57
2019-03-08T23:17:12.255Z,2.03
2019-03-08T23:19:45.285Z,1.70
2019-03-08T23:22:18.322Z,2.07
2019-03-08T23:24:51.321Z,1.50
2019-03-08T23:27:27.561Z,2.50
2019-03-08T23:30:01.630Z,1.83
2019-03-08T23:32:35.971Z,1.30
2019-03-08T23:35:11.547Z,1.60
2019-03-08T23:37:44.722Z,1.77
2019-03-08T23:40:18.798Z,1.60
2019-03-08T23:42:52.194Z,2.30
2019-03-08T23:45:25.183Z,1.57
2019-03-08T23:47:58.227Z,1.83
2019-03-08T23:50:31.835Z,1.43
2019-03-08T23:53:06.273Z,2.00
2019-03-08T23:55:39.263Z,2.43
2019-03-08T23:58:13.093Z,1.50
